Time;durP1;ratioP1;P1;durP2;ratioP2;P2;SDS_P1;SDS_P2;PMS_P1;PMS_P2;Temp;Humidity;BMP_temperature;BMP_pressure;BME280_temperature;BME280_humidity;BME280_pressure;Samples;Min_cycle;Max_cycle;Signal;HPM_P1;HPM_P2
2023/08/17 00:02:13;;;;;;;11.68;11.18;;;;;;;;;;5071285;28;20491;-62
2023/08/17 00:04:39;;;;;;;11.90;11.40;;;;;;;;;;5057714;28;20049;-64
2023/08/17 00:07:04;;;;;;;11.88;11.38;;;;;;;;;;5057891;28;20103;-63
2023/08/17 00:09:30;;;;;;;11.82;11.32;;;;;;;;;;5063169;28;20036;-64
2023/08/17 00:11:55;;;;;;;11.55;11.05;;;;;;;;;;5054355;28;20028;-64
2023/08/17 00:14:20;;;;;;;11.50;11.00;;;;;;;;;;5056266;28;20079;-63
2023/08/17 00:16:46;;;;;;;11.55;11.05;;;;;;;;;;5057269;28;20512;-64
2023/08/17 00:19:11;;;;;;;11.73;11.23;;;;;;;;;;5054664;28;20024;-64
2023/08/17 00:21:36;;;;;;;11.45;10.95;;;;;;;;;;5057954;28;20096;-64
2023/08/17 00:24:02;;;;;;;11.82;11.32;;;;;;;;;;5060025;28;20115;-63
2023/08/17 00:26:28;;;;;;;11.60;11.10;;;;;;;;;;5057320;28;20025;-63
2023/08/17 00:28:53;;;;;;;11.88;11.38;;;;;;;;;;5057669;28;20155;-63
2023/08/17 00:31:18;;;;;;;11.85;11.35;;;;;;;;;;5055804;28;20112;-63
2023/08/17 00:33:45;;;;;;;11.57;11.07;;;;;;;;;;5060294;28;20035;-62
2023/08/17 00:36:10;;;;;;;11.70;11.20;;;;;;;;;;5061969;28;20078;-63
2023/08/17 00:38:35;;;;;;;11.45;10.95;;;;;;;;;;5065744;28;20020;-63
2023/08/17 00:41:01;;;;;;;11.95;11.45;;;;;;;;;;5056299;28;20017;-63
2023/08/17 00:43:26;;;;;;;11.88;11.38;;;;;;;;;;5056181;28;20036;-63
2023/08/17 00:45:51;;;;;;;11.80;11.30;;;;;;;;;;5057599;28;20021;-64
2023/08/17 00:48:17;;;;;;;11.43;10.93;;;;;;;;;;5056841;28;20523;-64
2023/08/17 00:50:43;;;;;;;11.48;10.98;;;;;;;;;;5054607;28;20020;-64
2023/08/17 00:53:13;;;;;;;11.82;11.32;;;;;;;;;;5039649;28;20040;-64
2023/08/17 00:55:38;;;;;;;11.60;11.10;;;;;;;;;;5053652;28;20397;-64
2023/08/17 00:58:04;;;;;;;11.55;11.05;;;;;;;;;;5058031;28;20017;-63
2023/08/17 01:00:31;;;;;;;12.07;11.57;;;;;;;;;;5060591;28;20023;-63
2023/08/17 01:02:56;;;;;;;11.70;11.20;;;;;;;;;;5061495;28;20130;-64
2023/08/17 01:05:22;;;;;;;11.85;11.35;;;;;;;;;;5037356;28;20060;-64
2023/08/17 01:07:48;;;;;;;11.77;11.27;;;;;;;;;;5054048;28;20050;-64
2023/08/17 01:10:14;;;;;;;11.55;11.05;;;;;;;;;;5050548;28;20040;-64
2023/08/17 01:12:46;;;;;;;11.80;11.30;;;;;;;;;;5055945;28;20028;-63
2023/08/17 01:15:17;;;;;;;11.93;11.43;;;;;;;;;;5052687;28;20025;-63
2023/08/17 01:17:54;;;;;;;11.57;11.07;;;;;;;;;;5056794;28;20028;-63
2023/08/17 01:20:20;;;;;;;11.75;11.25;;;;;;;;;;5058938;28;20028;-65
2023/08/17 01:22:48;;;;;;;11.80;11.30;;;;;;;;;;5035406;28;20044;-63
2023/08/17 01:25:13;;;;;;;11.35;10.85;;;;;;;;;;5056116;28;20024;-63
2023/08/17 01:27:40;;;;;;;11.65;11.15;;;;;;;;;;5050379;28;20024;-64
2023/08/17 01:30:06;;;;;;;11.48;10.98;;;;;;;;;;5058514;28;20116;-63
2023/08/17 01:32:39;;;;;;;11.40;10.90;;;;;;;;;;5052089;28;20049;-63
2023/08/17 01:35:09;;;;;;;12.60;12.00;;;;;;;;;;5051699;28;20029;-63
2023/08/17 01:37:37;;;;;;;11.75;11.25;;;;;;;;;;5049811;28;20017;-63
2023/08/17 01:40:04;;;;;;;11.35;10.85;;;;;;;;;;5053609;28;20155;-63
2023/08/17 01:42:30;;;;;;;11.75;11.25;;;;;;;;;;5058793;28;20044;-63
2023/08/17 01:44:55;;;;;;;11.80;11.30;;;;;;;;;;5054555;28;20440;-64
2023/08/17 01:47:21;;;;;;;11.43;10.93;;;;;;;;;;5055982;28;20032;-63
2023/08/17 01:49:47;;;;;;;11.30;10.80;;;;;;;;;;5058040;28;20020;-63
2023/08/17 01:52:12;;;;;;;11.68;11.18;;;;;;;;;;5053648;28;20021;-64
2023/08/17 01:54:37;;;;;;;11.60;11.10;;;;;;;;;;5055727;28;20048;-64
2023/08/17 01:57:03;;;;;;;11.80;11.30;;;;;;;;;;5056972;28;20539;-62
2023/08/17 01:59:28;;;;;;;11.48;10.98;;;;;;;;;;5051554;28;20089;-62
2023/08/17 02:01:53;;;;;;;11.65;11.15;;;;;;;;;;5040329;28;20112;-64
2023/08/17 02:04:18;;;;;;;11.73;11.23;;;;;;;;;;5073936;28;20489;-63
2023/08/17 02:06:44;;;;;;;11.48;10.98;;;;;;;;;;5073150;28;20012;-64
2023/08/17 02:09:09;;;;;;;11.18;10.68;;;;;;;;;;5069466;28;20025;-63
2023/08/17 02:11:34;;;;;;;11.70;11.20;;;;;;;;;;5061082;28;20496;-63
2023/08/17 02:14:00;;;;;;;11.45;10.95;;;;;;;;;;5071149;28;20016;-65
2023/08/17 02:16:25;;;;;;;11.32;10.82;;;;;;;;;;5077289;28;20028;-63
2023/08/17 02:18:50;;;;;;;11.80;11.30;;;;;;;;;;5077973;28;20103;-64
2023/08/17 02:21:16;;;;;;;11.48;10.98;;;;;;;;;;5077554;28;20017;-64
2023/08/17 02:23:41;;;;;;;11.60;11.10;;;;;;;;;;5075741;28;20034;-63
2023/08/17 02:26:06;;;;;;;11.50;11.00;;;;;;;;;;5073925;28;20066;-64
2023/08/17 02:28:31;;;;;;;11.70;11.20;;;;;;;;;;5075294;28;20465;-64
2023/08/17 02:30:58;;;;;;;11.38;10.88;;;;;;;;;;5076587;28;20451;-63
2023/08/17 02:33:24;;;;;;;11.75;11.25;;;;;;;;;;5073214;28;20012;-64
2023/08/17 02:35:49;;;;;;;11.38;10.88;;;;;;;;;;5083034;28;20028;-64
2023/08/17 02:38:14;;;;;;;11.20;10.70;;;;;;;;;;5078211;28;20078;-64
2023/08/17 02:40:40;;;;;;;11.98;11.48;;;;;;;;;;5080220;28;20036;-62
2023/08/17 02:43:06;;;;;;;12.57;11.98;;;;;;;;;;5072144;28;20459;-64
2023/08/17 02:45:31;;;;;;;11.60;11.10;;;;;;;;;;5072801;28;20028;-63
2023/08/17 02:47:56;;;;;;;11.52;11.02;;;;;;;;;;5072428;28;20023;-63
2023/08/17 02:50:21;;;;;;;11.73;11.23;;;;;;;;;;5075591;28;20036;-63
2023/08/17 02:52:47;;;;;;;11.65;11.15;;;;;;;;;;5075173;28;20103;-63
2023/08/17 02:55:12;;;;;;;11.73;11.23;;;;;;;;;;5072568;28;20158;-63
2023/08/17 02:57:37;;;;;;;11.60;11.10;;;;;;;;;;5076894;28;20403;-64
2023/08/17 03:00:03;;;;;;;11.37;10.87;;;;;;;;;;5074420;28;20023;-64
2023/08/17 03:02:28;;;;;;;11.60;11.10;;;;;;;;;;5079528;28;20283;-63
2023/08/17 03:04:54;;;;;;;11.30;10.80;;;;;;;;;;5070375;28;20520;-63
2023/08/17 03:07:19;;;;;;;11.32;10.82;;;;;;;;;;5070134;28;20468;-63
2023/08/17 03:09:45;;;;;;;11.52;11.02;;;;;;;;;;5070466;28;20115;-63
2023/08/17 03:12:10;;;;;;;11.10;10.60;;;;;;;;;;5071929;28;20751;-63
2023/08/17 03:14:35;;;;;;;11.80;11.30;;;;;;;;;;5069418;28;20033;-63
2023/08/17 03:17:01;;;;;;;11.97;11.47;;;;;;;;;;5069251;28;20483;-63
2023/08/17 03:19:26;;;;;;;11.63;11.13;;;;;;;;;;5069314;28;20269;-64
2023/08/17 03:21:51;;;;;;;11.40;10.90;;;;;;;;;;5068284;28;20614;-64
2023/08/17 03:24:17;;;;;;;11.30;10.80;;;;;;;;;;5070697;28;20048;-63
2023/08/17 03:26:42;;;;;;;11.68;11.18;;;;;;;;;;5067639;28;20025;-64
2023/08/17 03:29:09;;;;;;;12.07;11.57;;;;;;;;;;5068638;28;20108;-63
2023/08/17 03:31:35;;;;;;;11.55;11.05;;;;;;;;;;5068034;28;20028;-64
2023/08/17 03:34:01;;;;;;;11.70;11.20;;;;;;;;;;5070044;28;20476;-64
2023/08/17 03:36:26;;;;;;;11.32;10.82;;;;;;;;;;5068433;28;20167;-64
2023/08/17 03:38:51;;;;;;;11.98;11.48;;;;;;;;;;5069913;28;20430;-65
2023/08/17 03:41:17;;;;;;;11.90;11.40;;;;;;;;;;5069578;28;20480;-63
2023/08/17 03:43:42;;;;;;;11.73;11.23;;;;;;;;;;5065833;28;20020;-64
2023/08/17 03:46:07;;;;;;;11.70;11.20;;;;;;;;;;5068114;28;20056;-63
2023/08/17 03:48:33;;;;;;;11.50;11.00;;;;;;;;;;5068686;28;20079;-63
2023/08/17 03:50:58;;;;;;;11.48;10.98;;;;;;;;;;5070093;28;20021;-63
2023/08/17 03:53:23;;;;;;;11.55;11.05;;;;;;;;;;5067883;28;20070;-63
2023/08/17 03:55:49;;;;;;;11.70;11.20;;;;;;;;;;5069251;28;20103;-64
2023/08/17 03:58:15;;;;;;;11.80;11.30;;;;;;;;;;5069588;28;20120;-64
2023/08/17 04:00:41;;;;;;;11.75;11.25;;;;;;;;;;5068845;28;20108;-64
2023/08/17 04:03:06;;;;;;;11.90;11.40;;;;;;;;;;5068691;28;20129;-63
2023/08/17 04:05:31;;;;;;;11.60;11.10;;;;;;;;;;5069572;28;20045;-63
2023/08/17 04:08:01;;;;;;;12.07;11.57;;;;;;;;;;5069557;28;20021;-63
2023/08/17 04:10:26;;;;;;;11.93;11.43;;;;;;;;;;5068397;28;20025;-64
2023/08/17 04:12:52;;;;;;;11.98;11.48;;;;;;;;;;5069436;28;20515;-64
2023/08/17 04:15:17;;;;;;;11.50;11.00;;;;;;;;;;5068153;28;20151;-65
2023/08/17 04:17:43;;;;;;;11.80;11.30;;;;;;;;;;5067673;28;20090;-64
2023/08/17 04:20:08;;;;;;;11.52;11.02;;;;;;;;;;5069424;28;20024;-65
2023/08/17 04:22:34;;;;;;;11.88;11.38;;;;;;;;;;5067124;28;20024;-64
2023/08/17 04:24:59;;;;;;;11.87;11.37;;;;;;;;;;5069533;28;20017;-65
2023/08/17 04:27:25;;;;;;;12.15;11.65;;;;;;;;;;5072484;28;20667;-66
2023/08/17 04:29:50;;;;;;;12.18;11.68;;;;;;;;;;5072307;28;20040;-64
2023/08/17 04:32:16;;;;;;;11.88;11.38;;;;;;;;;;5068848;28;20116;-64
2023/08/17 04:34:42;;;;;;;12.00;11.50;;;;;;;;;;5068988;28;20048;-64
2023/08/17 04:37:07;;;;;;;12.23;11.73;;;;;;;;;;5070051;28;20136;-63
2023/08/17 04:39:32;;;;;;;12.10;11.60;;;;;;;;;;5068989;28;20032;-64
2023/08/17 04:41:58;;;;;;;12.07;11.57;;;;;;;;;;5069759;28;20029;-64
2023/08/17 04:44:23;;;;;;;12.02;11.52;;;;;;;;;;5068850;28;20468;-64
2023/08/17 04:46:48;;;;;;;12.30;11.80;;;;;;;;;;5068546;28;20531;-64
2023/08/17 04:49:14;;;;;;;12.00;11.50;;;;;;;;;;5070330;28;20265;-64
2023/08/17 04:51:39;;;;;;;12.03;11.53;;;;;;;;;;5070884;28;20386;-64
2023/08/17 04:54:04;;;;;;;12.18;11.68;;;;;;;;;;5072680;28;20261;-64
2023/08/17 04:56:29;;;;;;;12.27;11.77;;;;;;;;;;5076294;28;20083;-65
2023/08/17 04:58:55;;;;;;;12.20;11.70;;;;;;;;;;5070724;28;20281;-64
2023/08/17 05:01:20;;;;;;;12.33;11.83;;;;;;;;;;5071016;28;20017;-64
2023/08/17 05:03:45;;;;;;;12.10;11.60;;;;;;;;;;5070783;28;20277;-64
2023/08/17 05:06:11;;;;;;;12.18;11.68;;;;;;;;;;5072432;28;20108;-64
2023/08/17 05:08:37;;;;;;;12.07;11.57;;;;;;;;;;5071320;28;20472;-64
2023/08/17 05:11:02;;;;;;;12.00;11.50;;;;;;;;;;5073172;28;20425;-65
2023/08/17 05:13:27;;;;;;;12.10;11.60;;;;;;;;;;5069513;28;20257;-65
2023/08/17 05:15:52;;;;;;;11.97;11.47;;;;;;;;;;5071720;28;20084;-65
2023/08/17 05:18:18;;;;;;;12.30;11.80;;;;;;;;;;5074110;28;20257;-64
2023/08/17 05:20:43;;;;;;;12.10;11.60;;;;;;;;;;5074632;28;20680;-64
2023/08/17 05:23:08;;;;;;;12.30;11.80;;;;;;;;;;5071218;28;20257;-64
2023/08/17 05:25:34;;;;;;;12.10;11.60;;;;;;;;;;5072625;28;20315;-65
2023/08/17 05:27:59;;;;;;;12.20;11.70;;;;;;;;;;5070693;28;20254;-65
2023/08/17 05:30:24;;;;;;;12.10;11.60;;;;;;;;;;5070820;28;20031;-65
2023/08/17 05:32:49;;;;;;;11.80;11.30;;;;;;;;;;5053478;28;20088;-65
2023/08/17 05:35:15;;;;;;;11.85;11.35;;;;;;;;;;5053891;28;20028;-64
2023/08/17 05:37:40;;;;;;;12.25;11.75;;;;;;;;;;5072076;28;20028;-65
2023/08/17 05:40:06;;;;;;;11.90;11.40;;;;;;;;;;5071373;28;20045;-63
2023/08/17 05:42:31;;;;;;;12.15;11.65;;;;;;;;;;5071379;28;20078;-64
2023/08/17 05:44:56;;;;;;;12.23;11.73;;;;;;;;;;5070808;28;20029;-64
2023/08/17 05:47:22;;;;;;;11.97;11.47;;;;;;;;;;5067484;28;20468;-65
2023/08/17 05:49:47;;;;;;;12.00;11.50;;;;;;;;;;5074297;28;20276;-64
2023/08/17 05:52:13;;;;;;;12.50;11.90;;;;;;;;;;5068678;28;20116;-64
2023/08/17 05:54:38;;;;;;;12.35;11.85;;;;;;;;;;5069305;28;20032;-65
2023/08/17 05:57:03;;;;;;;12.27;11.77;;;;;;;;;;5069513;28;20069;-65
2023/08/17 05:59:29;;;;;;;12.60;12.00;;;;;;;;;;5071434;28;20029;-64
2023/08/17 06:01:54;;;;;;;12.37;11.87;;;;;;;;;;5071050;28;20617;-64
2023/08/17 06:04:20;;;;;;;12.48;11.90;;;;;;;;;;5070758;28;20094;-64
2023/08/17 06:06:46;;;;;;;12.77;12.18;;;;;;;;;;5074475;28;20024;-65
2023/08/17 06:09:11;;;;;;;12.45;11.90;;;;;;;;;;5071307;28;20048;-65
2023/08/17 06:11:36;;;;;;;12.20;11.70;;;;;;;;;;5071127;28;20122;-63
2023/08/17 06:14:02;;;;;;;12.37;11.87;;;;;;;;;;5071122;28;20340;-64
2023/08/17 06:16:27;;;;;;;12.53;11.97;;;;;;;;;;5071454;28;20356;-65
2023/08/17 06:18:52;;;;;;;11.70;11.20;;;;;;;;;;5070748;28;20328;-64
2023/08/17 06:21:17;;;;;;;12.20;11.70;;;;;;;;;;5070905;28;20336;-65
2023/08/17 06:23:43;;;;;;;11.97;11.47;;;;;;;;;;5070359;28;20075;-64
2023/08/17 06:26:08;;;;;;;12.15;11.65;;;;;;;;;;5071532;28;20451;-64
2023/08/17 06:28:33;;;;;;;12.17;11.67;;;;;;;;;;5071942;28;20055;-64
2023/08/17 06:30:59;;;;;;;12.03;11.53;;;;;;;;;;5069551;28;20696;-65
2023/08/17 06:33:24;;;;;;;11.90;11.40;;;;;;;;;;5070492;28;20021;-66
2023/08/17 06:35:49;;;;;;;12.27;11.77;;;;;;;;;;5069490;28;20016;-65
2023/08/17 06:38:15;;;;;;;12.13;11.63;;;;;;;;;;5069526;28;20253;-65
2023/08/17 06:40:41;;;;;;;12.57;11.97;;;;;;;;;;5071334;28;20269;-65
2023/08/17 06:43:06;;;;;;;12.13;11.63;;;;;;;;;;5069495;28;20479;-64
2023/08/17 06:45:32;;;;;;;12.70;12.10;;;;;;;;;;5073015;28;20033;-64
2023/08/17 06:47:58;;;;;;;12.35;11.85;;;;;;;;;;5069613;28;20070;-64
2023/08/17 06:50:23;;;;;;;12.15;11.65;;;;;;;;;;5070291;28;20043;-65
2023/08/17 06:52:48;;;;;;;12.27;11.77;;;;;;;;;;5070294;28;20029;-64
2023/08/17 06:55:15;;;;;;;12.23;11.73;;;;;;;;;;5070531;28;20281;-65
2023/08/17 06:57:40;;;;;;;12.60;12.00;;;;;;;;;;5070188;28;20040;-65
2023/08/17 07:00:06;;;;;;;12.63;12.03;;;;;;;;;;5071432;28;20391;-64
2023/08/17 07:02:32;;;;;;;12.40;11.88;;;;;;;;;;5069512;28;20103;-65
2023/08/17 07:04:57;;;;;;;11.87;11.37;;;;;;;;;;5068051;28;20044;-65
2023/08/17 07:07:22;;;;;;;12.17;11.67;;;;;;;;;;5070139;28;20253;-65
2023/08/17 07:09:47;;;;;;;12.23;11.73;;;;;;;;;;5071682;28;20498;-65
2023/08/17 07:12:13;;;;;;;12.20;11.70;;;;;;;;;;5067253;28;20257;-64
2023/08/17 07:14:38;;;;;;;12.27;11.77;;;;;;;;;;5069979;28;20509;-64
2023/08/17 07:17:04;;;;;;;12.00;11.50;;;;;;;;;;5069101;28;20047;-64
2023/08/17 07:19:29;;;;;;;12.25;11.75;;;;;;;;;;5070641;28;20795;-65
2023/08/17 07:21:55;;;;;;;12.25;11.75;;;;;;;;;;5071486;28;20479;-63
2023/08/17 07:24:20;;;;;;;12.57;11.97;;;;;;;;;;5070248;28;20028;-64
2023/08/17 07:26:45;;;;;;;12.27;11.77;;;;;;;;;;5069372;28;20273;-64
2023/08/17 07:29:11;;;;;;;12.23;11.73;;;;;;;;;;5069159;28;20044;-64
2023/08/17 07:31:37;;;;;;;12.05;11.55;;;;;;;;;;5069370;28;20055;-64
2023/08/17 07:34:03;;;;;;;11.98;11.48;;;;;;;;;;5069874;28;20029;-65
2023/08/17 07:36:28;;;;;;;11.68;11.18;;;;;;;;;;5071094;28;20063;-65
2023/08/17 07:38:53;;;;;;;12.10;11.60;;;;;;;;;;5069682;28;20606;-64
2023/08/17 07:41:19;;;;;;;12.13;11.63;;;;;;;;;;5068972;28;20261;-65
2023/08/17 07:43:44;;;;;;;12.20;11.70;;;;;;;;;;5067380;28;20424;-64
2023/08/17 07:46:09;;;;;;;12.03;11.53;;;;;;;;;;5066938;28;20027;-66
2023/08/17 07:48:35;;;;;;;12.00;11.50;;;;;;;;;;5068498;28;20271;-63
2023/08/17 07:51:00;;;;;;;11.90;11.40;;;;;;;;;;5070189;28;20029;-64
2023/08/17 07:53:25;;;;;;;11.77;11.27;;;;;;;;;;5070557;28;20052;-64
2023/08/17 07:55:51;;;;;;;11.82;11.32;;;;;;;;;;5068766;28;20269;-64
2023/08/17 07:58:16;;;;;;;11.98;11.48;;;;;;;;;;5066017;28;20045;-64
2023/08/17 08:00:41;;;;;;;12.05;11.55;;;;;;;;;;5069210;28;20071;-64
2023/08/17 08:03:07;;;;;;;12.18;11.68;;;;;;;;;;5070891;28;20052;-64
2023/08/17 08:05:32;;;;;;;12.00;11.50;;;;;;;;;;5070525;28;20031;-64
2023/08/17 08:07:57;;;;;;;11.73;11.23;;;;;;;;;;5069523;28;20299;-63
2023/08/17 08:10:23;;;;;;;12.00;11.50;;;;;;;;;;5068268;28;20406;-64
2023/08/17 08:12:48;;;;;;;11.70;11.20;;;;;;;;;;5068897;28;20039;-62
2023/08/17 08:15:13;;;;;;;11.80;11.30;;;;;;;;;;5066277;28;20115;-64
2023/08/17 08:17:39;;;;;;;11.90;11.40;;;;;;;;;;5068975;28;20028;-64
2023/08/17 08:20:04;;;;;;;11.87;11.37;;;;;;;;;;5069579;28;20451;-64
2023/08/17 08:22:30;;;;;;;12.05;11.55;;;;;;;;;;5069003;28;20306;-64
2023/08/17 08:24:55;;;;;;;12.00;11.50;;;;;;;;;;5072777;28;20083;-63
2023/08/17 08:27:20;;;;;;;12.05;11.55;;;;;;;;;;5073410;28;20017;-64
2023/08/17 08:29:46;;;;;;;12.00;11.50;;;;;;;;;;5073406;28;20012;-64
2023/08/17 08:32:11;;;;;;;12.00;11.50;;;;;;;;;;5072532;28;20078;-65
2023/08/17 08:34:36;;;;;;;11.87;11.37;;;;;;;;;;5073354;28;20487;-65
2023/08/17 08:37:02;;;;;;;12.25;11.75;;;;;;;;;;5071743;28;20250;-63
2023/08/17 08:39:27;;;;;;;12.20;11.68;;;;;;;;;;5072944;28;20028;-64
2023/08/17 08:41:53;;;;;;;11.65;11.15;;;;;;;;;;5074268;28;20104;-63
2023/08/17 08:44:18;;;;;;;12.02;11.52;;;;;;;;;;5071585;28;20112;-63
2023/08/17 08:46:44;;;;;;;12.00;11.50;;;;;;;;;;5075243;28;20095;-64
2023/08/17 08:49:10;;;;;;;11.90;11.40;;;;;;;;;;5072411;28;20066;-64
2023/08/17 08:51:37;;;;;;;11.82;11.32;;;;;;;;;;5071208;28;20032;-65
2023/08/17 08:54:08;;;;;;;11.85;11.35;;;;;;;;;;5071576;28;20484;-64
2023/08/17 08:56:34;;;;;;;12.05;11.55;;;;;;;;;;5074237;28;20036;-63
2023/08/17 08:59:04;;;;;;;11.85;11.35;;;;;;;;;;5072082;28;20025;-65
2023/08/17 09:01:30;;;;;;;12.43;11.88;;;;;;;;;;5073485;28;20257;-64
2023/08/17 09:03:58;;;;;;;12.07;11.57;;;;;;;;;;5072101;28;20041;-64
2023/08/17 09:06:25;;;;;;;12.30;11.80;;;;;;;;;;5072523;28;20016;-64
2023/08/17 09:08:51;;;;;;;11.85;11.35;;;;;;;;;;5072607;28;20100;-64
2023/08/17 09:11:16;;;;;;;11.98;11.48;;;;;;;;;;5070773;28;20107;-65
2023/08/17 09:13:41;;;;;;;11.70;11.20;;;;;;;;;;5071217;28;20020;-64
2023/08/17 09:16:07;;;;;;;12.03;11.53;;;;;;;;;;5071421;28;20024;-64
2023/08/17 09:18:32;;;;;;;11.90;11.40;;;;;;;;;;5072426;28;20728;-64
2023/08/17 09:20:57;;;;;;;12.00;11.50;;;;;;;;;;5073623;28;20273;-63
2023/08/17 09:23:23;;;;;;;11.73;11.23;;;;;;;;;;5070996;28;20027;-63
2023/08/17 09:25:49;;;;;;;11.60;11.10;;;;;;;;;;5072389;28;20280;-64
2023/08/17 09:28:16;;;;;;;11.48;10.98;;;;;;;;;;5071996;28;20020;-65
2023/08/17 09:30:52;;;;;;;11.77;11.27;;;;;;;;;;5073177;28;20024;-64
2023/08/17 09:33:17;;;;;;;11.65;11.15;;;;;;;;;;5070400;28;20024;-65
2023/08/17 09:35:43;;;;;;;12.30;11.80;;;;;;;;;;5070907;28;20035;-64
2023/08/17 09:38:11;;;;;;;12.10;11.60;;;;;;;;;;5070310;28;20103;-64
2023/08/17 09:40:36;;;;;;;11.70;11.20;;;;;;;;;;5071039;28;20430;-64
2023/08/17 09:43:02;;;;;;;11.67;11.17;;;;;;;;;;5068997;28;20017;-64
2023/08/17 09:45:28;;;;;;;12.30;11.80;;;;;;;;;;5071026;28;20276;-64
2023/08/17 09:47:54;;;;;;;11.90;11.40;;;;;;;;;;5070475;28;20013;-64
2023/08/17 09:50:22;;;;;;;11.57;11.07;;;;;;;;;;5071876;28;20028;-65
2023/08/17 09:52:47;;;;;;;12.13;11.63;;;;;;;;;;5073725;28;20384;-63
2023/08/17 09:55:13;;;;;;;12.30;11.80;;;;;;;;;;5071527;28;20035;-63
2023/08/17 09:57:41;;;;;;;11.82;11.32;;;;;;;;;;5071521;28;20506;-65
2023/08/17 10:00:07;;;;;;;11.90;11.40;;;;;;;;;;5072272;28;20388;-63
2023/08/17 10:02:32;;;;;;;11.77;11.27;;;;;;;;;;5071744;28;20024;-64
2023/08/17 10:04:58;;;;;;;11.48;10.98;;;;;;;;;;5071344;28;20514;-63
2023/08/17 10:07:28;;;;;;;11.63;11.13;;;;;;;;;;5071622;28;20486;-63
2023/08/17 10:09:59;;;;;;;11.52;11.02;;;;;;;;;;5070768;28;20032;-65
2023/08/17 10:12:28;;;;;;;11.82;11.32;;;;;;;;;;5070093;28;20479;-64
2023/08/17 10:14:58;;;;;;;11.57;11.07;;;;;;;;;;5071280;28;20605;-64
2023/08/17 10:17:26;;;;;;;11.45;10.95;;;;;;;;;;5070994;28;20016;-65
2023/08/17 10:19:56;;;;;;;11.55;11.05;;;;;;;;;;5070291;28;20056;-66
2023/08/17 10:22:29;;;;;;;11.98;11.48;;;;;;;;;;5069995;28;20021;-63
2023/08/17 10:24:55;;;;;;;11.43;10.93;;;;;;;;;;5070509;28;20379;-64
2023/08/17 10:27:21;;;;;;;11.55;11.05;;;;;;;;;;5071115;28;20024;-63
2023/08/17 10:29:46;;;;;;;11.48;10.98;;;;;;;;;;5069500;28;20026;-64
2023/08/17 10:32:12;;;;;;;11.77;11.27;;;;;;;;;;5069349;28;20020;-64
2023/08/17 10:34:38;;;;;;;11.50;11.00;;;;;;;;;;5069647;28;20119;-64
2023/08/17 10:37:04;;;;;;;11.70;11.20;;;;;;;;;;5072071;28;20034;-64
2023/08/17 10:39:30;;;;;;;11.50;11.00;;;;;;;;;;5069450;28;20407;-65
2023/08/17 10:41:56;;;;;;;11.57;11.07;;;;;;;;;;5071496;28;20404;-63
2023/08/17 10:44:41;;;;;;;11.55;11.05;;;;;;;;;;5068075;28;20021;-64
2023/08/17 10:47:22;;;;;;;11.52;11.02;;;;;;;;;;5070470;28;20543;-65
2023/08/17 10:49:57;;;;;;;11.30;10.80;;;;;;;;;;5069855;28;20031;-65
2023/08/17 10:52:27;;;;;;;11.60;11.10;;;;;;;;;;5065936;28;20094;-65
2023/08/17 10:54:53;;;;;;;11.48;10.98;;;;;;;;;;5070934;28;20024;-64
2023/08/17 10:57:24;;;;;;;11.70;11.20;;;;;;;;;;5068647;28;20389;-63
2023/08/17 11:00:27;;;;;;;11.63;11.13;;;;;;;;;;5070335;28;20020;-64
2023/08/17 11:02:56;;;;;;;11.68;11.18;;;;;;;;;;5004231;28;20111;-63
2023/08/17 11:05:40;;;;;;;11.60;11.10;;;;;;;;;;5057512;28;20079;-66
2023/08/17 11:08:06;;;;;;;11.60;11.10;;;;;;;;;;5070889;28;20023;-64
2023/08/17 11:10:33;;;;;;;11.75;11.25;;;;;;;;;;5069564;28;20439;-64
2023/08/17 11:13:01;;;;;;;11.45;10.95;;;;;;;;;;5070531;28;20074;-65
2023/08/17 11:15:39;;;;;;;11.60;11.10;;;;;;;;;;5069349;28;20024;-64
2023/08/17 11:18:07;;;;;;;11.70;11.20;;;;;;;;;;5068029;28;20478;-66
2023/08/17 11:20:33;;;;;;;11.50;11.00;;;;;;;;;;5070599;28;20525;-64
2023/08/17 11:22:59;;;;;;;11.50;11.00;;;;;;;;;;5070284;28;20021;-64
2023/08/17 11:25:26;;;;;;;11.85;11.35;;;;;;;;;;5068529;28;20028;-64
2023/08/17 11:27:51;;;;;;;11.57;11.07;;;;;;;;;;5068927;28;20020;-64
2023/08/17 11:30:17;;;;;;;11.45;10.95;;;;;;;;;;5068499;28;20021;-64
2023/08/17 11:32:42;;;;;;;11.40;10.90;;;;;;;;;;5068485;28;20372;-64
2023/08/17 11:35:07;;;;;;;11.50;11.00;;;;;;;;;;5051349;28;20055;-64
2023/08/17 11:37:34;;;;;;;11.35;10.85;;;;;;;;;;5070690;28;20044;-64
2023/08/17 11:39:59;;;;;;;11.70;11.20;;;;;;;;;;5069586;28;20029;-64
2023/08/17 11:42:25;;;;;;;11.70;11.20;;;;;;;;;;5068718;28;20035;-64
2023/08/17 11:44:50;;;;;;;11.63;11.13;;;;;;;;;;5068385;28;20598;-64
2023/08/17 11:47:15;;;;;;;11.60;11.10;;;;;;;;;;5068993;28;20693;-65
2023/08/17 11:49:41;;;;;;;11.43;10.93;;;;;;;;;;5069119;28;20568;-64
2023/08/17 11:52:08;;;;;;;11.87;11.37;;;;;;;;;;5069361;28;20127;-65
2023/08/17 11:54:34;;;;;;;11.80;11.30;;;;;;;;;;5069714;28;20029;-64
2023/08/17 11:56:59;;;;;;;11.88;11.38;;;;;;;;;;5069568;28;20039;-65
2023/08/17 11:59:26;;;;;;;11.70;11.20;;;;;;;;;;5073225;28;20033;-64
2023/08/17 12:01:52;;;;;;;11.95;11.45;;;;;;;;;;5072517;28;20027;-65
2023/08/17 12:04:20;;;;;;;11.65;11.15;;;;;;;;;;5072746;28;20409;-65
2023/08/17 12:06:46;;;;;;;11.55;11.05;;;;;;;;;;5076227;28;20043;-65
2023/08/17 12:09:14;;;;;;;11.38;10.88;;;;;;;;;;5075897;28;20024;-65
2023/08/17 12:11:39;;;;;;;11.95;11.45;;;;;;;;;;5073226;28;20024;-64
2023/08/17 12:14:11;;;;;;;11.75;11.25;;;;;;;;;;5071968;28;20090;-65
2023/08/17 12:16:45;;;;;;;11.60;11.10;;;;;;;;;;5072988;28;20025;-64
2023/08/17 12:19:10;;;;;;;11.55;11.05;;;;;;;;;;5070441;28;20055;-64
2023/08/17 12:21:35;;;;;;;11.43;10.93;;;;;;;;;;5075254;28;20060;-65
2023/08/17 12:24:04;;;;;;;11.55;11.05;;;;;;;;;;5055270;28;20537;-64
2023/08/17 12:26:29;;;;;;;11.68;11.18;;;;;;;;;;5073133;28;20022;-63
2023/08/17 12:28:55;;;;;;;11.48;10.98;;;;;;;;;;5073229;28;20016;-65
2023/08/17 12:31:22;;;;;;;11.30;10.80;;;;;;;;;;5073100;28;20020;-63
2023/08/17 12:33:47;;;;;;;11.70;11.20;;;;;;;;;;5071432;28;20412;-64
2023/08/17 12:36:13;;;;;;;11.27;10.77;;;;;;;;;;5073452;28;20020;-64
2023/08/17 12:38:44;;;;;;;11.68;11.18;;;;;;;;;;5071852;28;20269;-64
2023/08/17 12:41:09;;;;;;;11.70;11.20;;;;;;;;;;5071749;28;20058;-65
2023/08/17 12:43:35;;;;;;;11.50;11.00;;;;;;;;;;5069548;28;20024;-64
2023/08/17 12:46:00;;;;;;;11.67;11.17;;;;;;;;;;5072379;28;20111;-64
2023/08/17 12:48:25;;;;;;;11.23;10.73;;;;;;;;;;5073222;28;20617;-64
2023/08/17 12:50:50;;;;;;;11.07;10.57;;;;;;;;;;5071318;28;20343;-64
2023/08/17 12:53:16;;;;;;;11.20;10.70;;;;;;;;;;5074423;28;20494;-63
2023/08/17 12:55:41;;;;;;;11.20;10.70;;;;;;;;;;5072712;28;20036;-64
2023/08/17 12:58:09;;;;;;;11.55;11.05;;;;;;;;;;5073202;28;20028;-64
2023/08/17 13:00:35;;;;;;;11.20;10.70;;;;;;;;;;5070434;28;20372;-65
2023/08/17 13:03:00;;;;;;;11.52;11.02;;;;;;;;;;5072350;28;20048;-64
2023/08/17 13:05:26;;;;;;;11.65;11.15;;;;;;;;;;5072384;28;20035;-65
2023/08/17 13:07:51;;;;;;;11.65;11.15;;;;;;;;;;5071741;28;20070;-65
2023/08/17 13:10:16;;;;;;;11.40;10.90;;;;;;;;;;5069557;28;20477;-64
2023/08/17 13:12:42;;;;;;;11.75;11.25;;;;;;;;;;5071318;28;20260;-66
2023/08/17 13:15:07;;;;;;;11.35;10.85;;;;;;;;;;5070365;28;20112;-65
2023/08/17 13:17:32;;;;;;;11.13;10.63;;;;;;;;;;5072273;28;20048;-65
2023/08/17 13:19:58;;;;;;;11.40;10.90;;;;;;;;;;5075597;28;20021;-64
2023/08/17 13:22:23;;;;;;;11.60;11.10;;;;;;;;;;5069744;28;20033;-64
2023/08/17 13:24:48;;;;;;;11.70;11.20;;;;;;;;;;5069575;28;20016;-64
2023/08/17 13:27:13;;;;;;;11.40;10.90;;;;;;;;;;5070518;28;20242;-65
2023/08/17 13:29:39;;;;;;;11.80;11.30;;;;;;;;;;5074401;28;20029;-65
2023/08/17 13:32:05;;;;;;;11.52;11.02;;;;;;;;;;5074300;28;20388;-63
2023/08/17 13:34:30;;;;;;;11.80;11.30;;;;;;;;;;5071601;28;20024;-65
2023/08/17 13:36:56;;;;;;;11.60;11.10;;;;;;;;;;5071262;28;20016;-64
2023/08/17 13:39:21;;;;;;;11.57;11.07;;;;;;;;;;5070940;28;20037;-64
2023/08/17 13:41:47;;;;;;;11.50;11.00;;;;;;;;;;5070975;28;20020;-64
2023/08/17 13:44:12;;;;;;;11.53;11.03;;;;;;;;;;5071295;28;20546;-64
2023/08/17 13:46:37;;;;;;;11.68;11.18;;;;;;;;;;5073715;28;20245;-65
2023/08/17 13:49:03;;;;;;;11.40;10.90;;;;;;;;;;5074004;28;20028;-65
2023/08/17 13:51:28;;;;;;;11.60;11.10;;;;;;;;;;5067694;28;20024;-64
2023/08/17 13:53:54;;;;;;;11.40;10.90;;;;;;;;;;5071328;28;20032;-64
2023/08/17 13:56:19;;;;;;;11.57;11.07;;;;;;;;;;5070959;28;20347;-65
2023/08/17 13:58:44;;;;;;;11.70;11.20;;;;;;;;;;5071447;28;20028;-64
2023/08/17 14:01:11;;;;;;;11.57;11.07;;;;;;;;;;5073441;28;20379;-65
2023/08/17 14:03:36;;;;;;;11.65;11.15;;;;;;;;;;5071520;28;20040;-64
2023/08/17 14:06:02;;;;;;;11.55;11.05;;;;;;;;;;5070406;28;20021;-65
2023/08/17 14:08:27;;;;;;;11.97;11.47;;;;;;;;;;5070642;28;20016;-65
2023/08/17 14:10:52;;;;;;;11.70;11.20;;;;;;;;;;5070731;28;20249;-65